sensor_id;sensor_type;location;lat;lon;timestamp;P1;durP1;ratioP1;P2;durP2;ratioP2
7410;SDS011;3747;48.628;9.058;2023-01-20T00:00:03;21.37;;;15.27;;
7410;SDS011;3747;48.628;9.058;2023-01-20T00:02:30;22.43;;;14.70;;
7410;SDS011;3747;48.628;9.058;2023-01-20T00:04:57;21.83;;;14.80;;
7410;SDS011;3747;48.628;9.058;2023-01-20T00:07:24;20.93;;;14.73;;
7410;SDS011;3747;48.628;9.058;2023-01-20T00:09:50;22.77;;;14.20;;
7410;SDS011;3747;48.628;9.058;2023-01-20T00:12:17;20.40;;;14.47;;
7410;SDS011;3747;48.628;9.058;2023-01-20T00:14:45;23.13;;;14.00;;
7410;SDS011;3747;48.628;9.058;2023-01-20T00:17:12;22.23;;;14.10;;
7410;SDS011;3747;48.628;9.058;2023-01-20T00:19:38;19.60;;;13.03;;
7410;SDS011;3747;48.628;9.058;2023-01-20T00:22:05;17.80;;;13.37;;
7410;SDS011;3747;48.628;9.058;2023-01-20T00:24:32;18.27;;;13.47;;
7410;SDS011;3747;48.628;9.058;2023-01-20T00:26:58;22.67;;;15.23;;
7410;SDS011;3747;48.628;9.058;2023-01-20T00:29:25;19.37;;;14.23;;
7410;SDS011;3747;48.628;9.058;2023-01-20T00:31:53;20.80;;;15.50;;
7410;SDS011;3747;48.628;9.058;2023-01-20T00:34:20;19.17;;;15.13;;
7410;SDS011;3747;48.628;9.058;2023-01-20T00:36:46;17.17;;;13.03;;
7410;SDS011;3747;48.628;9.058;2023-01-20T00:39:13;17.53;;;12.50;;
7410;SDS011;3747;48.628;9.058;2023-01-20T00:41:40;15.33;;;11.33;;
7410;SDS011;3747;48.628;9.058;2023-01-20T00:44:06;15.33;;;11.43;;
7410;SDS011;3747;48.628;9.058;2023-01-20T00:46:33;15.50;;;11.07;;
7410;SDS011;3747;48.628;9.058;2023-01-20T00:49:01;15.43;;;9.63;;
7410;SDS011;3747;48.628;9.058;2023-01-20T00:51:28;14.47;;;9.37;;
7410;SDS011;3747;48.628;9.058;2023-01-20T00:53:54;13.33;;;10.00;;
7410;SDS011;3747;48.628;9.058;2023-01-20T00:56:21;13.70;;;9.03;;
7410;SDS011;3747;48.628;9.058;2023-01-20T00:58:48;14.93;;;11.07;;
7410;SDS011;3747;48.628;9.058;2023-01-20T01:01:14;16.50;;;11.53;;
7410;SDS011;3747;48.628;9.058;2023-01-20T01:03:42;17.20;;;11.43;;
7410;SDS011;3747;48.628;9.058;2023-01-20T01:06:11;15.40;;;10.90;;
7410;SDS011;3747;48.628;9.058;2023-01-20T01:08:39;14.23;;;9.97;;
7410;SDS011;3747;48.628;9.058;2023-01-20T01:11:06;14.63;;;10.83;;
7410;SDS011;3747;48.628;9.058;2023-01-20T01:13:33;17.10;;;11.43;;
7410;SDS011;3747;48.628;9.058;2023-01-20T01:16:01;19.33;;;10.97;;
7410;SDS011;3747;48.628;9.058;2023-01-20T01:18:28;16.27;;;11.70;;
7410;SDS011;3747;48.628;9.058;2023-01-20T01:20:54;16.23;;;11.73;;
7410;SDS011;3747;48.628;9.058;2023-01-20T01:23:22;18.10;;;13.37;;
7410;SDS011;3747;48.628;9.058;2023-01-20T01:25:49;18.93;;;11.63;;
7410;SDS011;3747;48.628;9.058;2023-01-20T01:28:16;17.13;;;12.13;;
7410;SDS011;3747;48.628;9.058;2023-01-20T01:30:42;16.47;;;12.07;;
7410;SDS011;3747;48.628;9.058;2023-01-20T01:33:09;18.67;;;12.37;;
7410;SDS011;3747;48.628;9.058;2023-01-20T01:35:36;18.83;;;13.73;;
7410;SDS011;3747;48.628;9.058;2023-01-20T01:38:02;17.33;;;13.67;;
7410;SDS011;3747;48.628;9.058;2023-01-20T01:40:48;15.10;;;11.40;;
7410;SDS011;3747;48.628;9.058;2023-01-20T01:43:17;13.17;;;11.17;;
7410;SDS011;3747;48.628;9.058;2023-01-20T01:45:48;16.70;;;11.33;;
7410;SDS011;3747;48.628;9.058;2023-01-20T01:48:14;14.27;;;11.37;;
7410;SDS011;3747;48.628;9.058;2023-01-20T01:50:43;15.10;;;10.60;;
7410;SDS011;3747;48.628;9.058;2023-01-20T01:53:13;13.70;;;10.93;;
7410;SDS011;3747;48.628;9.058;2023-01-20T01:55:41;15.70;;;11.60;;
7410;SDS011;3747;48.628;9.058;2023-01-20T01:58:13;18.20;;;14.07;;
7410;SDS011;3747;48.628;9.058;2023-01-20T02:00:41;17.23;;;13.37;;
7410;SDS011;3747;48.628;9.058;2023-01-20T02:03:09;19.67;;;13.17;;
7410;SDS011;3747;48.628;9.058;2023-01-20T02:05:36;17.60;;;12.67;;
7410;SDS011;3747;48.628;9.058;2023-01-20T02:08:04;19.23;;;12.63;;
7410;SDS011;3747;48.628;9.058;2023-01-20T02:10:32;18.33;;;11.97;;
7410;SDS011;3747;48.628;9.058;2023-01-20T02:12:59;15.77;;;10.67;;
7410;SDS011;3747;48.628;9.058;2023-01-20T02:15:30;23.93;;;15.00;;
7410;SDS011;3747;48.628;9.058;2023-01-20T02:18:10;19.47;;;13.20;;
7410;SDS011;3747;48.628;9.058;2023-01-20T02:23:48;12.80;;;9.13;;
7410;SDS011;3747;48.628;9.058;2023-01-20T02:26:34;10.77;;;7.90;;
7410;SDS011;3747;48.628;9.058;2023-01-20T02:29:28;9.63;;;7.50;;
7410;SDS011;3747;48.628;9.058;2023-01-20T02:32:25;13.50;;;8.40;;
7410;SDS011;3747;48.628;9.058;2023-01-20T02:35:04;12.40;;;7.97;;
7410;SDS011;3747;48.628;9.058;2023-01-20T02:37:36;10.17;;;8.40;;
7410;SDS011;3747;48.628;9.058;2023-01-20T02:40:13;9.30;;;8.33;;
7410;SDS011;3747;48.628;9.058;2023-01-20T02:42:54;13.00;;;8.60;;
7410;SDS011;3747;48.628;9.058;2023-01-20T02:45:29;11.23;;;7.97;;
7410;SDS011;3747;48.628;9.058;2023-01-20T02:48:03;10.33;;;6.93;;
7410;SDS011;3747;48.628;9.058;2023-01-20T02:50:39;10.13;;;7.37;;
7410;SDS011;3747;48.628;9.058;2023-01-20T02:53:11;9.97;;;7.17;;
7410;SDS011;3747;48.628;9.058;2023-01-20T02:55:41;9.43;;;7.97;;
7410;SDS011;3747;48.628;9.058;2023-01-20T02:58:12;10.50;;;8.20;;
7410;SDS011;3747;48.628;9.058;2023-01-20T03:00:45;10.30;;;7.90;;
7410;SDS011;3747;48.628;9.058;2023-01-20T03:03:18;13.90;;;9.13;;
7410;SDS011;3747;48.628;9.058;2023-01-20T03:05:50;10.60;;;8.57;;
7410;SDS011;3747;48.628;9.058;2023-01-20T03:08:21;9.53;;;8.37;;
7410;SDS011;3747;48.628;9.058;2023-01-20T03:10:51;14.00;;;9.37;;
7410;SDS011;3747;48.628;9.058;2023-01-20T03:13:21;9.73;;;8.70;;
7410;SDS011;3747;48.628;9.058;2023-01-20T03:15:55;15.93;;;9.70;;
7410;SDS011;3747;48.628;9.058;2023-01-20T03:18:25;13.23;;;8.60;;
7410;SDS011;3747;48.628;9.058;2023-01-20T03:20:55;14.03;;;9.80;;
7410;SDS011;3747;48.628;9.058;2023-01-20T03:23:22;14.80;;;10.13;;
7410;SDS011;3747;48.628;9.058;2023-01-20T03:25:51;14.93;;;9.67;;
7410;SDS011;3747;48.628;9.058;2023-01-20T03:28:20;14.03;;;10.17;;
7410;SDS011;3747;48.628;9.058;2023-01-20T03:30:47;15.07;;;10.30;;
7410;SDS011;3747;48.628;9.058;2023-01-20T03:33:14;15.57;;;10.57;;
7410;SDS011;3747;48.628;9.058;2023-01-20T03:35:43;15.73;;;11.17;;
7410;SDS011;3747;48.628;9.058;2023-01-20T03:38:10;18.00;;;11.87;;
7410;SDS011;3747;48.628;9.058;2023-01-20T03:40:39;17.60;;;11.87;;
7410;SDS011;3747;48.628;9.058;2023-01-20T03:43:13;19.73;;;12.00;;
7410;SDS011;3747;48.628;9.058;2023-01-20T03:45:49;14.20;;;10.13;;
7410;SDS011;3747;48.628;9.058;2023-01-20T03:48:27;12.80;;;10.37;;
7410;SDS011;3747;48.628;9.058;2023-01-20T03:51:03;15.60;;;10.07;;
7410;SDS011;3747;48.628;9.058;2023-01-20T03:53:38;14.10;;;9.70;;
7410;SDS011;3747;48.628;9.058;2023-01-20T03:56:11;13.47;;;9.20;;
7410;SDS011;3747;48.628;9.058;2023-01-20T03:58:44;13.67;;;9.93;;
7410;SDS011;3747;48.628;9.058;2023-01-20T04:01:13;12.80;;;9.90;;
7410;SDS011;3747;48.628;9.058;2023-01-20T04:03:43;14.03;;;9.73;;
7410;SDS011;3747;48.628;9.058;2023-01-20T04:06:13;16.23;;;9.67;;
7410;SDS011;3747;48.628;9.058;2023-01-20T04:08:43;15.43;;;10.80;;
7410;SDS011;3747;48.628;9.058;2023-01-20T04:11:13;14.70;;;10.23;;
7410;SDS011;3747;48.628;9.058;2023-01-20T04:13:40;14.43;;;10.53;;
7410;SDS011;3747;48.628;9.058;2023-01-20T04:16:08;14.43;;;10.97;;
7410;SDS011;3747;48.628;9.058;2023-01-20T04:18:41;14.30;;;9.87;;
7410;SDS011;3747;48.628;9.058;2023-01-20T04:21:12;15.07;;;10.60;;
7410;SDS011;3747;48.628;9.058;2023-01-20T04:23:45;11.63;;;9.03;;
7410;SDS011;3747;48.628;9.058;2023-01-20T04:26:16;16.23;;;10.77;;
7410;SDS011;3747;48.628;9.058;2023-01-20T04:28:43;15.40;;;9.67;;
7410;SDS011;3747;48.628;9.058;2023-01-20T04:31:10;14.73;;;10.33;;
7410;SDS011;3747;48.628;9.058;2023-01-20T04:33:38;16.30;;;11.73;;
7410;SDS011;3747;48.628;9.058;2023-01-20T04:36:05;12.57;;;10.13;;
7410;SDS011;3747;48.628;9.058;2023-01-20T04:38:34;12.60;;;10.07;;
7410;SDS011;3747;48.628;9.058;2023-01-20T04:41:00;13.30;;;9.77;;
7410;SDS011;3747;48.628;9.058;2023-01-20T04:43:27;12.83;;;10.93;;
7410;SDS011;3747;48.628;9.058;2023-01-20T04:45:53;13.77;;;11.30;;
7410;SDS011;3747;48.628;9.058;2023-01-20T04:48:20;14.03;;;9.70;;
7410;SDS011;3747;48.628;9.058;2023-01-20T04:50:47;11.33;;;10.13;;
7410;SDS011;3747;48.628;9.058;2023-01-20T04:53:13;15.10;;;10.57;;
7410;SDS011;3747;48.628;9.058;2023-01-20T04:55:44;11.53;;;9.73;;
7410;SDS011;3747;48.628;9.058;2023-01-20T04:58:11;11.03;;;8.40;;
7410;SDS011;3747;48.628;9.058;2023-01-20T05:00:38;10.73;;;7.73;;
7410;SDS011;3747;48.628;9.058;2023-01-20T05:03:05;10.43;;;8.10;;
7410;SDS011;3747;48.628;9.058;2023-01-20T05:05:32;9.43;;;7.33;;
7410;SDS011;3747;48.628;9.058;2023-01-20T05:07:59;11.83;;;8.27;;
7410;SDS011;3747;48.628;9.058;2023-01-20T05:10:25;10.40;;;7.97;;
7410;SDS011;3747;48.628;9.058;2023-01-20T05:12:53;11.23;;;7.67;;
7410;SDS011;3747;48.628;9.058;2023-01-20T05:15:20;12.73;;;8.00;;
7410;SDS011;3747;48.628;9.058;2023-01-20T05:17:46;9.30;;;7.80;;
7410;SDS011;3747;48.628;9.058;2023-01-20T05:20:13;14.47;;;8.63;;
7410;SDS011;3747;48.628;9.058;2023-01-20T05:22:40;9.77;;;7.77;;
7410;SDS011;3747;48.628;9.058;2023-01-20T05:25:07;10.03;;;7.53;;
7410;SDS011;3747;48.628;9.058;2023-01-20T05:27:34;7.63;;;6.83;;
7410;SDS011;3747;48.628;9.058;2023-01-20T05:30:03;11.20;;;6.73;;
7410;SDS011;3747;48.628;9.058;2023-01-20T05:32:30;9.80;;;7.17;;
7410;SDS011;3747;48.628;9.058;2023-01-20T05:34:57;8.10;;;7.07;;
7410;SDS011;3747;48.628;9.058;2023-01-20T05:37:24;12.13;;;7.23;;
7410;SDS011;3747;48.628;9.058;2023-01-20T05:39:50;10.50;;;6.80;;
7410;SDS011;3747;48.628;9.058;2023-01-20T05:42:17;8.00;;;5.83;;
7410;SDS011;3747;48.628;9.058;2023-01-20T05:44:43;7.43;;;6.40;;
7410;SDS011;3747;48.628;9.058;2023-01-20T05:47:11;9.67;;;6.50;;
7410;SDS011;3747;48.628;9.058;2023-01-20T05:49:38;6.10;;;5.53;;
7410;SDS011;3747;48.628;9.058;2023-01-20T05:52:05;8.60;;;5.73;;
7410;SDS011;3747;48.628;9.058;2023-01-20T05:54:31;7.07;;;6.10;;
7410;SDS011;3747;48.628;9.058;2023-01-20T05:56:58;8.00;;;6.17;;
7410;SDS011;3747;48.628;9.058;2023-01-20T05:59:25;9.70;;;5.90;;
7410;SDS011;3747;48.628;9.058;2023-01-20T06:01:52;9.00;;;6.07;;
7410;SDS011;3747;48.628;9.058;2023-01-20T06:04:20;8.03;;;6.27;;
7410;SDS011;3747;48.628;9.058;2023-01-20T06:06:47;9.10;;;6.70;;
7410;SDS011;3747;48.628;9.058;2023-01-20T06:09:13;8.57;;;7.60;;
7410;SDS011;3747;48.628;9.058;2023-01-20T06:11:40;8.30;;;6.67;;
7410;SDS011;3747;48.628;9.058;2023-01-20T06:14:07;7.87;;;6.20;;
7410;SDS011;3747;48.628;9.058;2023-01-20T06:16:33;8.57;;;6.43;;
7410;SDS011;3747;48.628;9.058;2023-01-20T06:19:00;7.90;;;6.33;;
7410;SDS011;3747;48.628;9.058;2023-01-20T06:21:28;16.30;;;10.90;;
7410;SDS011;3747;48.628;9.058;2023-01-20T06:23:55;9.63;;;6.70;;
7410;SDS011;3747;48.628;9.058;2023-01-20T06:26:21;11.83;;;6.53;;
7410;SDS011;3747;48.628;9.058;2023-01-20T06:28:48;8.47;;;6.90;;
7410;SDS011;3747;48.628;9.058;2023-01-20T06:31:15;10.63;;;7.60;;
7410;SDS011;3747;48.628;9.058;2023-01-20T06:33:42;9.87;;;7.73;;
7410;SDS011;3747;48.628;9.058;2023-01-20T06:36:09;11.60;;;8.70;;
7410;SDS011;3747;48.628;9.058;2023-01-20T06:38:39;9.50;;;7.47;;
7410;SDS011;3747;48.628;9.058;2023-01-20T06:41:06;9.50;;;8.00;;
7410;SDS011;3747;48.628;9.058;2023-01-20T06:43:34;11.63;;;9.00;;
7410;SDS011;3747;48.628;9.058;2023-01-20T06:46:04;9.17;;;7.73;;
7410;SDS011;3747;48.628;9.058;2023-01-20T06:48:34;8.40;;;7.43;;
7410;SDS011;3747;48.628;9.058;2023-01-20T06:51:01;9.70;;;7.10;;
7410;SDS011;3747;48.628;9.058;2023-01-20T06:53:28;7.10;;;6.00;;
7410;SDS011;3747;48.628;9.058;2023-01-20T06:55:57;7.50;;;6.00;;
7410;SDS011;3747;48.628;9.058;2023-01-20T06:58:24;6.90;;;6.20;;
7410;SDS011;3747;48.628;9.058;2023-01-20T07:00:53;7.33;;;5.40;;
7410;SDS011;3747;48.628;9.058;2023-01-20T07:03:21;6.10;;;5.27;;
7410;SDS011;3747;48.628;9.058;2023-01-20T07:05:55;7.03;;;6.17;;
7410;SDS011;3747;48.628;9.058;2023-01-20T07:08:24;7.43;;;6.17;;
7410;SDS011;3747;48.628;9.058;2023-01-20T07:10:51;10.63;;;6.63;;
7410;SDS011;3747;48.628;9.058;2023-01-20T07:13:19;9.20;;;6.57;;
7410;SDS011;3747;48.628;9.058;2023-01-20T07:15:45;7.33;;;6.27;;
7410;SDS011;3747;48.628;9.058;2023-01-20T07:18:12;10.47;;;6.53;;
7410;SDS011;3747;48.628;9.058;2023-01-20T07:20:39;9.80;;;6.60;;
7410;SDS011;3747;48.628;9.058;2023-01-20T07:23:07;7.03;;;5.37;;
7410;SDS011;3747;48.628;9.058;2023-01-20T07:25:33;7.97;;;6.27;;
7410;SDS011;3747;48.628;9.058;2023-01-20T07:28:02;10.63;;;6.10;;
7410;SDS011;3747;48.628;9.058;2023-01-20T07:30:30;7.10;;;5.77;;
7410;SDS011;3747;48.628;9.058;2023-01-20T07:32:56;8.87;;;6.20;;
7410;SDS011;3747;48.628;9.058;2023-01-20T07:35:23;22.60;;;15.90;;
7410;SDS011;3747;48.628;9.058;2023-01-20T07:37:50;8.83;;;6.13;;
7410;SDS011;3747;48.628;9.058;2023-01-20T07:40:17;6.20;;;5.27;;
7410;SDS011;3747;48.628;9.058;2023-01-20T07:42:43;8.87;;;6.10;;
7410;SDS011;3747;48.628;9.058;2023-01-20T07:45:10;6.67;;;5.93;;
7410;SDS011;3747;48.628;9.058;2023-01-20T07:47:38;8.27;;;6.27;;
7410;SDS011;3747;48.628;9.058;2023-01-20T07:50:05;6.07;;;5.33;;
7410;SDS011;3747;48.628;9.058;2023-01-20T07:52:32;10.13;;;6.47;;
7410;SDS011;3747;48.628;9.058;2023-01-20T07:54:58;6.23;;;5.63;;
7410;SDS011;3747;48.628;9.058;2023-01-20T07:57:26;5.83;;;5.33;;
7410;SDS011;3747;48.628;9.058;2023-01-20T07:59:54;5.60;;;4.60;;
7410;SDS011;3747;48.628;9.058;2023-01-20T08:02:20;6.40;;;5.13;;
7410;SDS011;3747;48.628;9.058;2023-01-20T08:04:49;5.53;;;4.77;;
7410;SDS011;3747;48.628;9.058;2023-01-20T08:07:16;8.17;;;5.77;;
7410;SDS011;3747;48.628;9.058;2023-01-20T08:09:43;9.07;;;6.30;;
7410;SDS011;3747;48.628;9.058;2023-01-20T08:12:10;8.67;;;5.87;;
7410;SDS011;3747;48.628;9.058;2023-01-20T08:14:36;9.70;;;6.37;;
7410;SDS011;3747;48.628;9.058;2023-01-20T08:17:03;8.07;;;6.57;;
7410;SDS011;3747;48.628;9.058;2023-01-20T08:19:30;7.13;;;6.00;;
7410;SDS011;3747;48.628;9.058;2023-01-20T08:21:58;6.87;;;6.17;;
7410;SDS011;3747;48.628;9.058;2023-01-20T08:24:24;8.67;;;6.53;;
7410;SDS011;3747;48.628;9.058;2023-01-20T08:26:51;13.17;;;8.10;;
7410;SDS011;3747;48.628;9.058;2023-01-20T08:29:18;7.53;;;5.97;;
7410;SDS011;3747;48.628;9.058;2023-01-20T08:31:44;8.03;;;5.90;;
7410;SDS011;3747;48.628;9.058;2023-01-20T08:34:11;6.60;;;5.83;;
7410;SDS011;3747;48.628;9.058;2023-01-20T08:36:39;6.10;;;5.47;;
7410;SDS011;3747;48.628;9.058;2023-01-20T08:39:08;7.80;;;6.97;;
7410;SDS011;3747;48.628;9.058;2023-01-20T08:41:38;11.83;;;9.50;;
7410;SDS011;3747;48.628;9.058;2023-01-20T08:44:07;7.73;;;5.43;;
7410;SDS011;3747;48.628;9.058;2023-01-20T08:46:35;5.73;;;5.17;;
7410;SDS011;3747;48.628;9.058;2023-01-20T08:49:04;4.67;;;4.20;;
7410;SDS011;3747;48.628;9.058;2023-01-20T08:51:31;6.93;;;5.63;;
7410;SDS011;3747;48.628;9.058;2023-01-20T08:53:58;9.80;;;5.87;;
7410;SDS011;3747;48.628;9.058;2023-01-20T08:56:27;6.20;;;5.60;;
7410;SDS011;3747;48.628;9.058;2023-01-20T08:58:55;8.07;;;5.87;;
7410;SDS011;3747;48.628;9.058;2023-01-20T09:01:23;6.13;;;5.30;;
7410;SDS011;3747;48.628;9.058;2023-01-20T09:03:51;8.27;;;6.17;;
7410;SDS011;3747;48.628;9.058;2023-01-20T09:06:18;8.03;;;5.93;;
7410;SDS011;3747;48.628;9.058;2023-01-20T09:08:46;7.97;;;5.47;;
7410;SDS011;3747;48.628;9.058;2023-01-20T09:11:13;7.10;;;5.20;;
7410;SDS011;3747;48.628;9.058;2023-01-20T09:13:42;9.00;;;6.17;;
7410;SDS011;3747;48.628;9.058;2023-01-20T09:16:09;9.57;;;6.00;;
7410;SDS011;3747;48.628;9.058;2023-01-20T09:18:37;11.00;;;6.23;;
7410;SDS011;3747;48.628;9.058;2023-01-20T09:21:04;6.40;;;5.50;;
7410;SDS011;3747;48.628;9.058;2023-01-20T09:23:31;24.37;;;10.27;;
7410;SDS011;3747;48.628;9.058;2023-01-20T09:25:59;20.70;;;8.83;;
7410;SDS011;3747;48.628;9.058;2023-01-20T09:28:26;17.23;;;8.43;;
7410;SDS011;3747;48.628;9.058;2023-01-20T09:30:57;17.17;;;9.27;;
7410;SDS011;3747;48.628;9.058;2023-01-20T09:33:24;19.17;;;8.73;;
7410;SDS011;3747;48.628;9.058;2023-01-20T09:35:52;18.80;;;8.23;;
7410;SDS011;3747;48.628;9.058;2023-01-20T09:38:19;22.83;;;9.07;;
7410;SDS011;3747;48.628;9.058;2023-01-20T09:41:09;35.20;;;12.10;;
7410;SDS011;3747;48.628;9.058;2023-01-20T09:44:07;18.80;;;8.63;;
7410;SDS011;3747;48.628;9.058;2023-01-20T09:47:01;12.67;;;7.20;;
7410;SDS011;3747;48.628;9.058;2023-01-20T09:49:51;4.80;;;4.30;;
7410;SDS011;3747;48.628;9.058;2023-01-20T09:52:46;5.93;;;4.73;;
7410;SDS011;3747;48.628;9.058;2023-01-20T09:55:30;5.50;;;4.90;;
7410;SDS011;3747;48.628;9.058;2023-01-20T09:58:06;7.17;;;4.73;;
7410;SDS011;3747;48.628;9.058;2023-01-20T10:00:38;5.23;;;4.40;;
7410;SDS011;3747;48.628;9.058;2023-01-20T10:03:10;4.90;;;4.27;;
7410;SDS011;3747;48.628;9.058;2023-01-20T10:05:41;7.43;;;5.00;;
7410;SDS011;3747;48.628;9.058;2023-01-20T10:08:15;7.97;;;6.07;;
7410;SDS011;3747;48.628;9.058;2023-01-20T10:10:46;7.57;;;5.87;;
7410;SDS011;3747;48.628;9.058;2023-01-20T10:13:17;7.10;;;5.80;;
7410;SDS011;3747;48.628;9.058;2023-01-20T10:15:47;7.60;;;5.33;;
7410;SDS011;3747;48.628;9.058;2023-01-20T10:18:20;8.27;;;5.70;;
7410;SDS011;3747;48.628;9.058;2023-01-20T10:20:54;7.53;;;5.70;;
7410;SDS011;3747;48.628;9.058;2023-01-20T10:23:26;7.40;;;4.67;;
7410;SDS011;3747;48.628;9.058;2023-01-20T10:25:58;7.60;;;6.13;;
7410;SDS011;3747;48.628;9.058;2023-01-20T10:28:33;5.97;;;5.30;;
7410;SDS011;3747;48.628;9.058;2023-01-20T10:31:03;6.07;;;5.47;;
7410;SDS011;3747;48.628;9.058;2023-01-20T10:33:31;5.30;;;4.77;;
7410;SDS011;3747;48.628;9.058;2023-01-20T10:36:02;5.83;;;4.90;;
7410;SDS011;3747;48.628;9.058;2023-01-20T10:38:35;5.27;;;4.30;;
7410;SDS011;3747;48.628;9.058;2023-01-20T10:41:20;8.67;;;4.80;;
7410;SDS011;3747;48.628;9.058;2023-01-20T10:43:51;5.57;;;5.00;;
7410;SDS011;3747;48.628;9.058;2023-01-20T10:46:23;7.77;;;5.57;;
7410;SDS011;3747;48.628;9.058;2023-01-20T10:49:04;6.17;;;5.60;;
7410;SDS011;3747;48.628;9.058;2023-01-20T10:51:57;7.13;;;5.10;;
7410;SDS011;3747;48.628;9.058;2023-01-20T10:54:43;5.77;;;4.60;;
7410;SDS011;3747;48.628;9.058;2023-01-20T10:57:19;5.53;;;4.33;;
7410;SDS011;3747;48.628;9.058;2023-01-20T10:59:47;5.00;;;4.47;;
7410;SDS011;3747;48.628;9.058;2023-01-20T11:02:16;5.10;;;4.43;;
7410;SDS011;3747;48.628;9.058;2023-01-20T11:04:48;5.50;;;4.40;;
7410;SDS011;3747;48.628;9.058;2023-01-20T11:07:19;4.67;;;4.27;;
7410;SDS011;3747;48.628;9.058;2023-01-20T11:09:45;5.63;;;4.90;;
7410;SDS011;3747;48.628;9.058;2023-01-20T11:12:14;6.10;;;5.10;;
7410;SDS011;3747;48.628;9.058;2023-01-20T11:14:42;6.57;;;4.57;;
7410;SDS011;3747;48.628;9.058;2023-01-20T11:17:12;5.23;;;4.63;;
7410;SDS011;3747;48.628;9.058;2023-01-20T11:19:43;5.37;;;4.40;;
7410;SDS011;3747;48.628;9.058;2023-01-20T11:22:13;4.47;;;3.60;;
7410;SDS011;3747;48.628;9.058;2023-01-20T11:24:44;6.60;;;4.90;;
7410;SDS011;3747;48.628;9.058;2023-01-20T11:27:13;5.73;;;5.13;;
7410;SDS011;3747;48.628;9.058;2023-01-20T11:29:44;7.03;;;4.77;;
7410;SDS011;3747;48.628;9.058;2023-01-20T11:32:31;5.93;;;5.33;;
7410;SDS011;3747;48.628;9.058;2023-01-20T11:34:59;7.30;;;5.43;;
7410;SDS011;3747;48.628;9.058;2023-01-20T11:37:35;7.87;;;5.77;;
7410;SDS011;3747;48.628;9.058;2023-01-20T11:40:14;7.43;;;5.83;;
7410;SDS011;3747;48.628;9.058;2023-01-20T11:42:45;9.03;;;6.90;;
7410;SDS011;3747;48.628;9.058;2023-01-20T11:45:24;6.97;;;6.10;;
7410;SDS011;3747;48.628;9.058;2023-01-20T11:50:45;8.20;;;7.03;;
7410;SDS011;3747;48.628;9.058;2023-01-20T11:53:19;6.70;;;6.00;;
7410;SDS011;3747;48.628;9.058;2023-01-20T11:55:49;7.67;;;6.00;;
7410;SDS011;3747;48.628;9.058;2023-01-20T11:58:19;7.27;;;6.20;;
7410;SDS011;3747;48.628;9.058;2023-01-20T12:00:48;9.37;;;6.67;;
7410;SDS011;3747;48.628;9.058;2023-01-20T12:03:26;7.73;;;6.87;;
7410;SDS011;3747;48.628;9.058;2023-01-20T12:06:11;7.40;;;5.80;;
7410;SDS011;3747;48.628;9.058;2023-01-20T12:08:44;6.57;;;5.43;;
7410;SDS011;3747;48.628;9.058;2023-01-20T12:11:16;8.40;;;5.50;;
7410;SDS011;3747;48.628;9.058;2023-01-20T12:13:51;6.47;;;4.93;;
7410;SDS011;3747;48.628;9.058;2023-01-20T12:16:52;5.60;;;4.27;;
7410;SDS011;3747;48.628;9.058;2023-01-20T12:19:26;4.47;;;4.03;;
7410;SDS011;3747;48.628;9.058;2023-01-20T12:22:00;5.33;;;4.20;;
7410;SDS011;3747;48.628;9.058;2023-01-20T12:24:37;6.10;;;4.07;;
7410;SDS011;3747;48.628;9.058;2023-01-20T12:27:28;6.40;;;3.50;;
7410;SDS011;3747;48.628;9.058;2023-01-20T12:29:57;3.50;;;2.80;;
7410;SDS011;3747;48.628;9.058;2023-01-20T12:32:27;4.57;;;3.10;;
7410;SDS011;3747;48.628;9.058;2023-01-20T12:34:57;5.43;;;3.37;;
7410;SDS011;3747;48.628;9.058;2023-01-20T12:37:25;7.90;;;4.13;;
7410;SDS011;3747;48.628;9.058;2023-01-20T12:40:05;5.10;;;4.17;;
7410;SDS011;3747;48.628;9.058;2023-01-20T12:42:55;5.20;;;4.23;;
7410;SDS011;3747;48.628;9.058;2023-01-20T12:45:39;5.00;;;3.47;;
7410;SDS011;3747;48.628;9.058;2023-01-20T12:48:33;4.07;;;3.30;;
7410;SDS011;3747;48.628;9.058;2023-01-20T12:51:16;4.90;;;2.90;;
7410;SDS011;3747;48.628;9.058;2023-01-20T12:53:58;4.47;;;2.73;;
7410;SDS011;3747;48.628;9.058;2023-01-20T12:56:46;4.10;;;2.90;;
7410;SDS011;3747;48.628;9.058;2023-01-20T12:59:24;2.50;;;2.30;;
7410;SDS011;3747;48.628;9.058;2023-01-20T13:02:07;3.77;;;2.90;;
7410;SDS011;3747;48.628;9.058;2023-01-20T13:07:55;3.30;;;3.00;;
7410;SDS011;3747;48.628;9.058;2023-01-20T13:13:41;4.23;;;3.20;;
7410;SDS011;3747;48.628;9.058;2023-01-20T13:16:14;3.50;;;2.87;;
7410;SDS011;3747;48.628;9.058;2023-01-20T13:18:53;3.77;;;2.53;;
7410;SDS011;3747;48.628;9.058;2023-01-20T13:21:29;4.50;;;3.10;;
7410;SDS011;3747;48.628;9.058;2023-01-20T13:23:57;2.90;;;2.40;;
7410;SDS011;3747;48.628;9.058;2023-01-20T13:26:26;4.00;;;2.20;;
7410;SDS011;3747;48.628;9.058;2023-01-20T13:28:56;2.57;;;1.87;;
7410;SDS011;3747;48.628;9.058;2023-01-20T13:31:29;2.03;;;1.83;;
7410;SDS011;3747;48.628;9.058;2023-01-20T13:39:59;2.93;;;2.63;;
7410;SDS011;3747;48.628;9.058;2023-01-20T13:42:26;3.33;;;2.80;;
7410;SDS011;3747;48.628;9.058;2023-01-20T13:45:14;2.43;;;1.67;;
7410;SDS011;3747;48.628;9.058;2023-01-20T13:47:47;5.40;;;2.17;;
7410;SDS011;3747;48.628;9.058;2023-01-20T13:50:22;5.73;;;2.97;;
7410;SDS011;3747;48.628;9.058;2023-01-20T13:53:01;3.03;;;2.83;;
7410;SDS011;3747;48.628;9.058;2023-01-20T13:55:48;3.90;;;3.37;;
7410;SDS011;3747;48.628;9.058;2023-01-20T13:58:21;4.07;;;3.10;;
7410;SDS011;3747;48.628;9.058;2023-01-20T14:00:50;4.70;;;3.27;;
7410;SDS011;3747;48.628;9.058;2023-01-20T14:03:20;4.43;;;3.37;;
7410;SDS011;3747;48.628;9.058;2023-01-20T14:05:49;4.70;;;3.30;;
7410;SDS011;3747;48.628;9.058;2023-01-20T14:08:18;5.20;;;3.93;;
7410;SDS011;3747;48.628;9.058;2023-01-20T14:10:46;4.60;;;2.57;;
7410;SDS011;3747;48.628;9.058;2023-01-20T14:13:17;5.03;;;3.10;;
7410;SDS011;3747;48.628;9.058;2023-01-20T14:15:48;4.90;;;3.17;;
7410;SDS011;3747;48.628;9.058;2023-01-20T14:18:18;4.90;;;2.93;;
7410;SDS011;3747;48.628;9.058;2023-01-20T14:20:56;3.20;;;2.87;;
7410;SDS011;3747;48.628;9.058;2023-01-20T14:23:29;2.93;;;2.70;;
7410;SDS011;3747;48.628;9.058;2023-01-20T14:25:58;4.07;;;2.77;;
7410;SDS011;3747;48.628;9.058;2023-01-20T14:28:33;4.80;;;2.87;;
7410;SDS011;3747;48.628;9.058;2023-01-20T14:31:22;3.20;;;2.70;;
7410;SDS011;3747;48.628;9.058;2023-01-20T14:34:01;4.10;;;2.83;;
7410;SDS011;3747;48.628;9.058;2023-01-20T14:36:42;2.60;;;2.40;;
7410;SDS011;3747;48.628;9.058;2023-01-20T14:39:11;3.53;;;3.23;;
7410;SDS011;3747;48.628;9.058;2023-01-20T14:41:45;3.53;;;3.23;;
7410;SDS011;3747;48.628;9.058;2023-01-20T14:44:18;4.33;;;2.83;;
7410;SDS011;3747;48.628;9.058;2023-01-20T14:46:47;3.43;;;2.80;;
7410;SDS011;3747;48.628;9.058;2023-01-20T14:49:17;5.40;;;3.20;;
7410;SDS011;3747;48.628;9.058;2023-01-20T14:51:46;3.53;;;3.00;;
7410;SDS011;3747;48.628;9.058;2023-01-20T14:54:27;6.30;;;3.67;;
7410;SDS011;3747;48.628;9.058;2023-01-20T14:56:56;6.90;;;3.40;;
7410;SDS011;3747;48.628;9.058;2023-01-20T14:59:24;3.00;;;2.70;;
7410;SDS011;3747;48.628;9.058;2023-01-20T15:01:54;5.63;;;2.83;;
7410;SDS011;3747;48.628;9.058;2023-01-20T15:04:25;34.17;;;20.17;;
7410;SDS011;3747;48.628;9.058;2023-01-20T15:06:59;3.93;;;2.83;;
7410;SDS011;3747;48.628;9.058;2023-01-20T15:09:28;3.90;;;3.00;;
7410;SDS011;3747;48.628;9.058;2023-01-20T15:15:02;3.80;;;2.90;;
7410;SDS011;3747;48.628;9.058;2023-01-20T15:20:30;2.70;;;2.50;;
7410;SDS011;3747;48.628;9.058;2023-01-20T15:22:58;3.63;;;2.50;;
7410;SDS011;3747;48.628;9.058;2023-01-20T15:25:25;3.10;;;2.50;;
7410;SDS011;3747;48.628;9.058;2023-01-20T15:27:53;3.17;;;2.67;;
7410;SDS011;3747;48.628;9.058;2023-01-20T15:30:21;4.73;;;3.00;;
7410;SDS011;3747;48.628;9.058;2023-01-20T15:32:51;2.97;;;2.70;;
7410;SDS011;3747;48.628;9.058;2023-01-20T15:35:21;4.43;;;3.13;;
7410;SDS011;3747;48.628;9.058;2023-01-20T15:37:50;4.77;;;3.00;;
7410;SDS011;3747;48.628;9.058;2023-01-20T15:40:19;4.00;;;2.53;;
7410;SDS011;3747;48.628;9.058;2023-01-20T15:42:46;4.60;;;3.60;;
7410;SDS011;3747;48.628;9.058;2023-01-20T15:45:14;5.33;;;3.50;;
7410;SDS011;3747;48.628;9.058;2023-01-20T15:47:41;4.77;;;3.60;;
7410;SDS011;3747;48.628;9.058;2023-01-20T15:50:11;5.00;;;3.90;;
7410;SDS011;3747;48.628;9.058;2023-01-20T15:52:40;3.53;;;3.23;;